createdAt,value
2018-02-06T00:01:25.311Z,24.37
2018-02-06T00:03:55.590Z,19.10
2018-02-06T00:06:26.451Z,18.00
2018-02-06T00:08:55.036Z,19.90
2018-02-06T00:11:25.629Z,16.70
2018-02-06T00:13:55.897Z,20.47
2018-02-06T00:16:35.199Z,18.43
2018-02-06T00:19:05.464Z,17.23
2018-02-06T00:21:36.461Z,14.57
2018-02-06T00:24:07.865Z,16.53
2018-02-06T00:26:41.206Z,15.03
2018-02-06T00:29:11.590Z,16.53
2018-02-06T00:31:42.635Z,16.90
2018-02-06T00:34:12.053Z,19.23
2018-02-06T00:36:40.591Z,25.50
2018-02-06T00:39:09.116Z,27.00
2018-02-06T00:41:39.304Z,27.10
2018-02-06T00:44:10.053Z,23.00
2018-02-06T00:46:38.533Z,23.10
2018-02-06T00:49:07.437Z,23.87
2018-02-06T00:51:39.198Z,19.77
2018-02-06T00:54:07.875Z,21.27
2018-02-06T00:56:36.356Z,18.10
2018-02-06T00:59:04.752Z,19.93
2018-02-06T01:01:35.049Z,19.90
2018-02-06T01:04:06.740Z,18.00
2018-02-06T01:06:37.048Z,21.73
2018-02-06T01:11:41.576Z,20.67
2018-02-06T01:14:13.074Z,18.33
2018-02-06T01:16:43.159Z,21.70
2018-02-06T01:19:11.797Z,22.87
2018-02-06T01:21:40.438Z,20.20
2018-02-06T01:24:10.581Z,22.33
2018-02-06T01:26:40.815Z,22.73
2018-02-06T01:29:09.452Z,17.13
2018-02-06T01:31:37.957Z,17.47
2018-02-06T01:34:06.539Z,18.20
2018-02-06T01:36:35.025Z,19.63
2018-02-06T01:39:05.304Z,18.17
2018-02-06T01:41:41.184Z,19.90
2018-02-06T01:44:09.784Z,20.13
2018-02-06T01:46:39.796Z,19.80
2018-02-06T01:49:08.296Z,18.37
2018-02-06T01:51:39.521Z,17.73
2018-02-06T01:54:10.278Z,24.20
2018-02-06T01:56:40.456Z,17.27
2018-02-06T01:59:10.841Z,20.13
2018-02-06T02:01:41.944Z,18.43
2018-02-06T02:04:19.868Z,16.27
2018-02-06T02:06:48.335Z,21.90
2018-02-06T02:09:18.556Z,21.90
2018-02-06T02:11:47.998Z,15.23
2018-02-06T02:14:16.463Z,21.23
2018-02-06T02:16:45.049Z,15.00
2018-02-06T02:19:15.251Z,15.97
2018-02-06T02:21:44.780Z,18.87
2018-02-06T02:24:13.317Z,20.00
2018-02-06T02:26:43.753Z,20.53
2018-02-06T02:29:21.964Z,19.00
2018-02-06T02:31:52.283Z,22.20
2018-02-06T02:34:25.708Z,20.10
2018-02-06T02:37:02.314Z,21.20
2018-02-06T02:39:32.471Z,17.40
2018-02-06T04:39:59.204Z,19.70
2018-02-06T04:42:29.642Z,19.27
2018-02-06T04:45:12.885Z,17.00
2018-02-06T04:47:45.249Z,22.60
2018-02-06T04:50:15.537Z,17.63
2018-02-06T04:52:44.859Z,23.83
2018-02-06T04:55:13.432Z,19.37
2018-02-06T04:57:43.726Z,18.60
2018-02-06T05:00:14.080Z,21.30
2018-02-06T05:02:54.854Z,23.90
2018-02-06T05:05:25.266Z,20.13
2018-02-06T05:07:56.223Z,20.80
2018-02-06T05:10:26.410Z,19.30
2018-02-06T05:12:55.778Z,19.30
2018-02-06T05:15:24.326Z,18.00
2018-02-06T05:17:53.044Z,15.30
2018-02-06T05:20:24.586Z,18.10
2018-02-06T05:22:53.814Z,21.50
2018-02-06T05:25:23.514Z,19.00
2018-02-06T05:27:53.814Z,21.03
2018-02-06T05:30:30.503Z,22.17
2018-02-06T05:33:01.848Z,21.80
2018-02-06T05:35:30.440Z,22.63
2018-02-06T05:38:00.898Z,24.40
2018-02-06T05:40:32.897Z,22.07
2018-02-06T05:43:03.131Z,17.87
2018-02-06T05:45:31.738Z,21.40
2018-02-06T05:48:03.090Z,19.30
2018-02-06T05:50:33.576Z,19.83
2018-02-06T05:53:12.076Z,19.43
2018-02-06T05:55:45.272Z,23.23
2018-02-06T05:58:13.842Z,19.07
2018-02-06T06:00:43.156Z,18.80
2018-02-06T06:03:13.871Z,16.93
2018-02-06T06:05:42.395Z,18.80
2018-02-06T06:08:12.228Z,19.83
2018-02-06T06:10:40.773Z,18.83
2018-02-06T06:13:09.426Z,26.63
2018-02-06T06:18:33.543Z,23.13
2018-02-06T06:21:11.273Z,22.77
2018-02-06T06:23:40.902Z,20.23
2018-02-06T06:26:09.393Z,22.13
2018-02-06T06:28:37.868Z,19.93
2018-02-06T06:31:06.347Z,24.47
2018-02-06T06:33:34.988Z,22.80
2018-02-06T06:36:05.205Z,26.43
2018-02-06T06:38:38.077Z,24.60
2018-02-06T06:41:10.325Z,21.00
2018-02-06T06:43:38.824Z,19.30
2018-02-06T06:46:12.149Z,18.93
2018-02-06T06:48:42.253Z,19.40
2018-02-06T06:51:12.641Z,18.87
2018-02-06T06:53:45.119Z,21.37
2018-02-06T06:56:19.817Z,17.83
2018-02-06T06:58:48.339Z,18.87
2018-02-06T07:01:20.024Z,20.70
2018-02-06T07:03:51.023Z,18.10
2018-02-06T07:06:21.343Z,17.70
2018-02-06T07:08:52.413Z,20.10
2018-02-06T07:11:22.825Z,20.70
2018-02-06T07:13:55.388Z,19.67
2018-02-06T07:16:25.727Z,20.90
2018-02-06T07:18:58.658Z,17.97
2018-02-06T07:21:29.239Z,20.03
2018-02-06T07:26:34.278Z,17.70
2018-02-06T07:29:05.791Z,21.17
2018-02-06T07:31:36.933Z,19.43
2018-02-06T07:34:05.483Z,21.37
2018-02-06T07:36:35.721Z,22.00
2018-02-06T07:39:08.303Z,24.80
2018-02-06T07:41:40.857Z,19.87
2018-02-06T07:44:10.488Z,23.57
2018-02-06T07:46:40.141Z,23.17
2018-02-06T07:49:11.209Z,22.47
2018-02-06T07:51:41.514Z,23.33
2018-02-06T07:54:25.083Z,22.83
2018-02-06T07:56:56.262Z,21.97
2018-02-06T07:59:24.925Z,20.13
2018-02-06T08:01:55.098Z,22.07
2018-02-06T08:04:40.796Z,18.17
2018-02-06T08:07:09.407Z,23.07
2018-02-06T08:09:40.998Z,20.57
2018-02-06T08:12:11.374Z,21.30
2018-02-06T08:14:41.625Z,22.50
2018-02-06T08:17:10.216Z,28.17
2018-02-06T08:19:40.543Z,24.70
2018-02-06T08:22:11.658Z,21.40
2018-02-06T08:24:44.368Z,22.53
2018-02-06T08:27:22.033Z,24.63
2018-02-06T08:29:50.634Z,22.43
2018-02-06T08:32:20.805Z,21.17
2018-02-06T08:34:54.870Z,22.13
2018-02-06T08:37:27.444Z,23.60
2018-02-06T08:39:56.893Z,23.00
2018-02-06T08:42:27.568Z,22.10
2018-02-06T08:44:57.002Z,20.17
2018-02-06T09:11:20.544Z,27.40
2018-02-06T09:13:50.995Z,26.73
2018-02-06T09:16:27.733Z,28.77
2018-02-06T09:18:58.726Z,27.13
2018-02-06T09:21:28.946Z,26.93
2018-02-06T09:27:12.541Z,33.13
2018-02-06T09:29:44.990Z,32.60
2018-02-06T09:32:21.055Z,27.73
2018-02-06T09:34:53.284Z,53.70
2018-02-06T09:37:21.776Z,33.73
2018-02-06T09:39:50.458Z,25.67
2018-02-06T09:42:20.692Z,32.43
2018-02-06T09:44:51.546Z,27.37
2018-02-06T09:47:20.306Z,22.43
2018-02-06T09:49:50.642Z,25.67
2018-02-06T09:52:23.240Z,28.50
2018-02-06T09:54:54.158Z,33.97
2018-02-06T09:57:29.997Z,35.27
2018-02-06T10:00:00.616Z,24.93
2018-02-06T10:02:31.303Z,21.77
2018-02-06T10:05:02.054Z,25.30
2018-02-06T10:07:30.898Z,29.87
2018-02-06T10:10:00.218Z,23.40
2018-02-06T10:12:28.779Z,24.93
2018-02-06T10:14:58.949Z,25.53
2018-02-06T10:17:29.521Z,25.97
2018-02-06T10:19:59.862Z,25.07
2018-02-06T10:22:30.813Z,31.00
2018-02-06T10:25:00.009Z,26.43
2018-02-06T10:27:33.105Z,31.90
2018-02-06T10:30:01.534Z,26.50
2018-02-06T10:32:32.582Z,27.30
2018-02-06T10:35:11.244Z,27.60
2018-02-06T10:37:39.759Z,29.27
2018-02-06T10:40:09.936Z,27.80
2018-02-06T10:42:39.585Z,33.90
2018-02-06T10:45:09.896Z,32.43
2018-02-06T10:47:44.914Z,32.80
2018-02-06T10:50:15.233Z,27.80
2018-02-06T10:52:48.093Z,26.87
2018-02-06T10:55:28.518Z,37.17
2018-02-06T10:57:58.902Z,25.97
2018-02-06T11:00:29.852Z,28.83
2018-02-06T11:03:00.512Z,21.30
2018-02-06T11:05:29.808Z,23.17
2018-02-06T11:07:58.692Z,20.93
2018-02-06T11:10:27.700Z,22.67
2018-02-06T11:12:56.281Z,23.00
2018-02-06T11:15:24.864Z,19.73
2018-02-06T11:17:53.453Z,20.90
2018-02-06T11:20:22.134Z,19.57
2018-02-06T11:22:50.726Z,28.50
2018-02-06T11:25:21.605Z,23.20
2018-02-06T11:27:50.153Z,22.53
2018-02-06T11:30:21.338Z,28.80
2018-02-06T11:32:50.641Z,24.03
2018-02-06T11:35:19.287Z,18.90
2018-02-06T11:37:47.863Z,31.40
2018-02-06T11:40:17.099Z,21.67
2018-02-06T11:42:45.652Z,24.63
2018-02-06T11:45:14.089Z,31.53
2018-02-06T11:47:47.365Z,21.63
2018-02-06T11:50:17.645Z,20.00
2018-02-06T11:52:48.842Z,25.87
2018-02-06T11:55:29.318Z,23.87
2018-02-06T11:57:59.798Z,26.33
2018-02-06T12:00:30.341Z,27.03
2018-02-06T12:02:59.118Z,19.13
2018-02-06T12:05:27.712Z,19.97
2018-02-06T12:07:59.918Z,20.07
2018-02-06T12:10:30.100Z,22.50
2018-02-06T12:12:58.661Z,20.80
2018-02-06T12:15:29.137Z,24.37
2018-02-06T12:17:59.194Z,23.90
2018-02-06T12:20:29.337Z,20.73
2018-02-06T12:22:59.681Z,20.50
2018-02-06T12:25:30.934Z,22.20
2018-02-06T12:28:01.931Z,26.57
2018-02-06T12:30:33.105Z,24.90
2018-02-06T12:33:02.418Z,20.10
2018-02-06T12:35:32.725Z,21.37
2018-02-06T12:38:05.743Z,18.60
2018-02-06T12:40:36.779Z,23.37
2018-02-06T12:43:07.559Z,19.70
2018-02-06T12:45:37.728Z,19.13
2018-02-06T12:48:08.172Z,19.83
2018-02-06T12:50:40.684Z,24.80
2018-02-06T12:53:10.909Z,18.73
2018-02-06T12:55:40.282Z,25.53
2018-02-06T12:58:12.730Z,22.10
2018-02-06T13:00:42.860Z,20.17
2018-02-06T13:03:12.327Z,21.33
2018-02-06T13:05:40.856Z,18.67
2018-02-06T13:08:09.335Z,21.50
2018-02-06T13:10:40.466Z,23.40
2018-02-06T13:13:10.774Z,19.40
2018-02-06T13:15:43.486Z,20.40
2018-02-06T13:18:25.628Z,22.10
2018-02-06T13:20:56.726Z,19.17
2018-02-06T13:23:40.377Z,18.27
2018-02-06T13:26:10.670Z,19.80
2018-02-06T13:28:40.795Z,18.37
2018-02-06T13:31:11.129Z,18.00
2018-02-06T13:33:43.886Z,19.23
2018-02-06T13:36:20.815Z,22.47
2018-02-06T13:38:52.117Z,21.83
2018-02-06T13:41:20.691Z,20.00
2018-02-06T13:43:49.219Z,20.20
2018-02-06T13:46:17.915Z,17.00
2018-02-06T13:48:48.033Z,21.67
2018-02-06T13:51:19.792Z,19.47
2018-02-06T13:53:49.323Z,23.53
2018-02-06T13:56:19.720Z,19.27
2018-02-06T13:58:51.902Z,21.23
2018-02-06T14:01:34.404Z,19.63
2018-02-06T14:04:03.139Z,30.27
2018-02-06T14:06:31.689Z,32.50
2018-02-06T14:09:00.365Z,22.43
2018-02-06T14:11:34.970Z,20.23
2018-02-06T14:14:09.923Z,34.10
2018-02-06T14:16:38.508Z,32.60
2018-02-06T14:19:07.200Z,26.43
2018-02-06T14:21:35.785Z,23.50
2018-02-06T14:24:04.307Z,25.23
2018-02-06T14:26:32.753Z,27.73
2018-02-06T14:29:03.201Z,21.20
2018-02-06T14:31:31.766Z,21.80
2018-02-06T14:34:00.813Z,25.93
2018-02-06T14:36:29.445Z,20.03
2018-02-06T14:38:58.345Z,20.10
2018-02-06T14:41:27.851Z,20.03
2018-02-06T14:43:57.071Z,20.60
2018-02-06T14:46:29.219Z,31.03
2018-02-06T14:48:57.907Z,25.70
2018-02-06T14:51:28.209Z,22.30
2018-02-06T14:53:57.640Z,19.43
2018-02-06T14:56:30.901Z,20.20
2018-02-06T14:59:01.155Z,25.13
2018-02-06T15:01:32.099Z,22.63
2018-02-06T15:04:00.786Z,21.10
2018-02-06T15:06:31.290Z,20.93
2018-02-06T15:08:59.916Z,22.40
2018-02-06T15:11:28.484Z,17.17
2018-02-06T15:13:57.909Z,23.40
2018-02-06T15:19:19.938Z,19.23
2018-02-06T15:21:49.449Z,21.23
2018-02-06T15:24:34.916Z,21.93
2018-02-06T15:27:03.756Z,20.90
2018-02-06T15:29:34.363Z,20.87
2018-02-06T15:32:04.873Z,18.10
2018-02-06T15:34:37.522Z,21.53
2018-02-06T15:37:08.376Z,20.03
2018-02-06T15:39:38.807Z,24.10
2018-02-06T15:42:12.779Z,18.73
2018-02-06T15:44:41.324Z,20.10
2018-02-06T15:47:19.446Z,23.43
2018-02-06T15:49:48.097Z,22.73
2018-02-06T15:52:18.243Z,22.57
2018-02-06T15:54:48.546Z,20.80
2018-02-06T15:57:22.893Z,78.77
2018-02-06T15:59:51.453Z,93.73
2018-02-06T16:02:25.548Z,38.80
2018-02-06T16:04:54.558Z,28.83
2018-02-06T16:07:23.845Z,24.57
2018-02-06T16:09:52.447Z,22.40
2018-02-06T16:12:22.758Z,28.10
2018-02-06T16:14:53.796Z,24.83
2018-02-06T16:17:25.082Z,22.67
2018-02-06T16:19:56.290Z,24.60
2018-02-06T16:22:34.826Z,23.23
2018-02-06T16:25:03.535Z,22.83
2018-02-06T16:27:33.909Z,25.40
2018-02-06T16:30:03.565Z,28.50
2018-02-06T16:32:33.818Z,22.93
2018-02-06T16:35:04.985Z,23.63
2018-02-06T16:37:33.655Z,22.70
2018-02-06T16:40:04.044Z,26.00
2018-02-06T16:42:32.938Z,27.50
2018-02-06T16:45:01.524Z,25.77
2018-02-06T16:47:32.702Z,24.40
2018-02-06T16:50:14.452Z,23.20
2018-02-06T16:52:49.524Z,22.80
2018-02-06T16:55:18.278Z,25.33
2018-02-06T16:57:48.565Z,21.17
2018-02-06T17:00:19.551Z,24.37
2018-02-06T17:02:49.989Z,27.20
2018-02-06T17:05:21.011Z,24.90
2018-02-06T17:07:51.320Z,27.60
2018-02-06T17:10:23.859Z,30.40
2018-02-06T17:12:52.420Z,24.83
2018-02-06T17:15:21.399Z,28.53
2018-02-06T17:17:51.462Z,26.10
2018-02-06T17:20:21.836Z,23.50
2018-02-06T17:22:52.787Z,45.07
2018-02-06T17:25:28.021Z,39.40
2018-02-06T17:27:59.226Z,30.47
2018-02-06T17:30:30.472Z,33.13
2018-02-06T17:32:59.205Z,30.00
2018-02-06T17:35:29.491Z,37.83
2018-02-06T17:38:00.800Z,36.53
2018-02-06T17:40:29.589Z,39.20
2018-02-06T17:42:58.331Z,29.70
2018-02-06T17:45:26.946Z,28.40
2018-02-06T17:47:55.642Z,27.37
2018-02-06T17:50:24.330Z,32.43
2018-02-06T17:52:54.887Z,25.47
2018-02-06T17:55:32.021Z,30.50
2018-02-06T17:58:02.361Z,26.77
2018-02-06T18:00:34.978Z,24.40
2018-02-06T18:03:11.545Z,27.43
2018-02-06T18:05:46.312Z,28.17
2018-02-06T18:08:22.498Z,25.10
2018-02-06T18:10:52.698Z,27.47
2018-02-06T18:13:30.973Z,30.67
2018-02-06T18:15:59.511Z,26.30
2018-02-06T18:18:28.708Z,24.17
2018-02-06T18:21:06.919Z,23.47
2018-02-06T18:23:37.089Z,33.50
2018-02-06T18:26:06.490Z,28.60
2018-02-06T18:28:35.983Z,33.73
2018-02-06T18:31:04.455Z,27.00
2018-02-06T18:33:33.131Z,29.17
2018-02-06T18:36:03.567Z,33.93
2018-02-06T18:38:34.513Z,35.77
2018-02-06T18:41:03.191Z,25.83
2018-02-06T18:43:38.134Z,28.10
2018-02-06T18:46:07.620Z,27.40
2018-02-06T18:48:37.058Z,28.50
2018-02-06T18:51:05.623Z,30.60
2018-02-06T18:53:43.413Z,28.23
2018-02-06T18:56:18.137Z,27.10
2018-02-06T18:58:46.833Z,29.43
2018-02-06T19:01:18.619Z,30.40
2018-02-06T19:03:47.382Z,29.87
2018-02-06T19:06:18.577Z,31.57
2018-02-06T19:08:49.820Z,31.43
2018-02-06T19:11:22.175Z,28.13
2018-02-06T19:13:50.938Z,28.67
2018-02-06T19:16:20.339Z,28.33
2018-02-06T19:18:51.001Z,32.10
2018-02-06T19:21:21.471Z,28.63
2018-02-06T19:23:51.934Z,26.57
2018-02-06T19:26:23.957Z,33.13
2018-02-06T19:28:56.006Z,31.73
2018-02-06T19:31:26.510Z,30.87
2018-02-06T19:33:56.123Z,28.60
2018-02-06T19:36:27.464Z,31.03
2018-02-06T19:38:56.268Z,32.13
2018-02-06T19:41:25.713Z,30.80
2018-02-06T19:43:56.355Z,32.97
2018-02-06T19:46:26.857Z,29.60
2018-02-06T19:48:56.487Z,32.27
2018-02-06T19:51:25.743Z,29.50
2018-02-06T19:53:58.638Z,29.97
2018-02-06T19:56:28.409Z,32.33
2018-02-06T19:58:58.960Z,35.10
2018-02-06T20:01:30.924Z,34.07
2018-02-06T20:04:01.532Z,34.30
2018-02-06T20:06:30.653Z,28.07
2018-02-06T20:08:59.648Z,32.73
2018-02-06T20:11:34.696Z,32.43
2018-02-06T20:14:05.996Z,29.10
2018-02-06T20:16:36.317Z,30.30
2018-02-06T20:19:07.590Z,34.13
2018-02-06T20:21:39.068Z,36.37
2018-02-06T20:24:14.295Z,36.63
2018-02-06T20:26:43.911Z,39.90
2018-02-06T20:29:14.539Z,39.20
2018-02-06T20:31:44.152Z,34.00
2018-02-06T20:34:14.451Z,33.07
2018-02-06T20:36:45.628Z,33.13
2018-02-06T20:39:25.665Z,33.17
2018-02-06T20:41:54.919Z,32.60
2018-02-06T20:44:25.206Z,38.13
2018-02-06T20:46:56.255Z,29.37
2018-02-06T20:49:26.773Z,32.17
2018-02-06T20:51:57.105Z,27.33
2018-02-06T20:54:35.394Z,33.57
2018-02-06T20:57:04.720Z,30.20
2018-02-06T20:59:34.958Z,29.60
2018-02-06T21:02:21.484Z,32.13
2018-02-06T21:04:51.801Z,37.67
2018-02-06T21:07:21.512Z,31.63
2018-02-06T21:09:50.028Z,76.07
2018-02-06T21:12:18.731Z,72.60
2018-02-06T21:14:49.061Z,32.97
2018-02-06T21:17:20.114Z,35.30
2018-02-06T21:19:48.791Z,36.30
2018-02-06T21:22:18.259Z,33.57
2018-02-06T21:24:48.252Z,35.53
2018-02-06T21:27:23.190Z,37.73
2018-02-06T21:29:53.556Z,34.03
2018-02-06T21:32:25.378Z,38.43
2018-02-06T21:34:54.018Z,36.63
2018-02-06T21:37:22.745Z,32.30
2018-02-06T21:39:52.923Z,30.57
2018-02-06T21:42:23.108Z,38.63
2018-02-06T21:44:53.581Z,38.00
2018-02-06T21:47:29.124Z,34.67
2018-02-06T21:50:14.201Z,34.33
2018-02-06T21:52:44.864Z,33.70
2018-02-06T21:55:13.630Z,38.90
2018-02-06T21:57:43.783Z,37.70
2018-02-06T22:00:14.260Z,36.03
2018-02-06T22:02:48.552Z,32.97
2018-02-06T22:05:19.924Z,36.20
2018-02-06T22:07:50.227Z,34.47
2018-02-06T22:10:21.290Z,35.27
2018-02-06T22:12:50.183Z,29.13
2018-02-06T22:15:23.114Z,30.97
2018-02-06T22:17:53.505Z,35.50
2018-02-06T22:20:22.076Z,38.87
2018-02-06T22:22:50.564Z,32.97
2018-02-06T22:25:19.050Z,39.83
2018-02-06T22:27:47.653Z,32.10
2018-02-06T22:30:18.179Z,36.93
2018-02-06T22:32:52.006Z,37.43
2018-02-06T22:35:20.551Z,36.33
2018-02-06T22:37:49.258Z,36.90
2018-02-06T22:40:20.368Z,34.60
2018-02-06T22:42:48.882Z,35.10
2018-02-06T22:45:19.096Z,31.97
2018-02-06T22:47:50.062Z,34.90
2018-02-06T22:50:21.236Z,35.10
2018-02-06T22:52:50.641Z,35.47
2018-02-06T22:55:21.790Z,37.33
2018-02-06T22:57:50.434Z,32.83
2018-02-06T23:00:26.268Z,34.57
2018-02-06T23:02:57.788Z,38.40
2018-02-06T23:05:28.678Z,38.67
2018-02-06T23:08:02.328Z,32.10
2018-02-06T23:10:36.797Z,34.67
2018-02-06T23:13:08.030Z,38.43
2018-02-06T23:15:38.474Z,36.03
2018-02-06T23:18:13.501Z,45.10
2018-02-06T23:20:42.092Z,35.30
2018-02-06T23:23:13.604Z,36.00
2018-02-06T23:25:42.236Z,36.80
2018-02-06T23:28:10.744Z,36.10
2018-02-06T23:30:41.001Z,37.43
2018-02-06T23:33:11.413Z,39.67
2018-02-06T23:35:41.884Z,37.73
2018-02-06T23:38:11.434Z,32.20
2018-02-06T23:40:41.668Z,36.57
2018-02-06T23:43:12.656Z,36.93
2018-02-06T23:45:48.524Z,36.80
2018-02-06T23:48:25.120Z,33.63
2018-02-06T23:50:55.270Z,39.17
2018-02-06T23:53:23.718Z,40.93
2018-02-06T23:55:54.229Z,36.20
2018-02-06T23:58:34.174Z,34.63
